• Join FlightAware (Why Join?)
  • Login
  • US Flag 
06:36AM EST


 

Airport Tracker/Info


-or-


 

Live Flight TrackerFlight Track Log ✈ SWA2520 ✈ 05-May-2013 ✈ KSJC - KLAX

Flight Track Log - Related Links

Times and Time Zones

All times are in EDT time to prevent confusion due to time zone crossing. See the SWA2520 flight status page for this flight to view local times or setup timezone preferences in your user account.

Time Position Orientation Groundspeed Altitude Reporting Facility
EDT Latitude Longitude Course Direction KTS MPH feet Rate Location/Type
07:50PM 37.3167 -121.8833 138° Southeast 200 230 2,700  Level Northern Cal TRACON
07:51PM 37.2833 -121.8333 130° Southeast 214 246 5,500 2,488 Climbing Northern Cal TRACON
07:52PM 37.2239 -121.7731 141° Southeast 250 288 7,800 2,908 Climbing Oakland Center
07:53PM 37.1692 -121.7089 137° Southeast 266 306 11,800 3,317 Climbing Oakland Center
07:54PM 37.1033 -121.6289 136° Southeast 328 377 14,600 3,268 Climbing Oakland Center
07:55PM 37.0261 -121.5417 138° Southeast 346 398 18,500 2,164 Climbing Oakland Center
07:56PM 36.9287 -121.4590 138° Southeast  Level Estimated
07:56PM 36.9547 -121.4561 136° Southeast 354 407 19,000  Level Oakland Center
07:57PM 36.8792 -121.3714 138° Southeast 365 420 19,400 1,131 Climbing Oakland Center
07:58PM 36.7978 -121.2781 137° Southeast 408 470 21,300 1,918 Climbing Oakland Center
07:59PM 36.7089 -121.1758 137° Southeast 428 493 23,300 1,967 Climbing Oakland Center
08:00PM 36.5992 -121.0514 138° Southeast 443 510 25,300 2,410 Climbing Oakland Center
08:01PM 36.5064 -120.9458 138° Southeast 450 518 28,200 2,732 Climbing Oakland Center
08:02PM 36.4175 -120.8422 137° Southeast 443 510 30,900 2,146 Climbing Oakland Center
08:03PM 36.3311 -120.7464 138° Southeast 423 487 32,600 1,180 Climbing Oakland Center
08:04PM 36.2394 -120.6436 138° Southeast 438 504 33,300 1,033 Climbing Oakland Center
08:05PM 36.1450 -120.5342 137° Southeast 456 525 34,700 836 Climbing Oakland Center
08:06PM 36.0478 -120.4214 137° Southeast 482 555 35,000 148 Climbing Oakland Center
08:08PM 35.9539 -120.3225 140° Southeast 446 513 35,000  Level Oakland Center
08:09PM 35.8592 -120.2175 138° Southeast 455 524 35,000  Level Oakland Center
08:10PM 35.7647 -120.1125 138° Southeast 453 521 35,000  Level Oakland Center
08:11PM 35.6697 -120.0053 137° Southeast 457 526 35,000 -98 Level Oakland Center
08:13PM 35.4625 -119.8197 144° Southeast 458 527 34,700 -426 Descending Oakland Center
08:14PM 35.3575 -119.7306 145° Southeast 458 527 33,700 -934 Descending Oakland Center
08:15PM 35.2547 -119.6411 145° Southeast 452 520 32,800 -885 Descending Oakland Center
08:16PM 35.1494 -119.5508 145° Southeast 459 528 31,900 -1,230 Descending Oakland Center
08:17PM 35.0242 -119.4444 145° Southeast 457 526 30,300 -2,459 Descending Oakland Center
08:18PM 34.9208 -119.3558 145° Southeast 456 525 26,900 -3,049 Descending Oakland Center
08:19PM 34.8208 -119.2694 145° Southeast 445 512 24,100 -2,754 Descending Oakland Center
08:20PM 34.7242 -119.1892 146° Southeast 429 494 21,300 -2,605 Descending Oakland Center
08:20PM 34.7044 -119.1744 148° Southeast 423 487 20,800 -2,260 Descending Los Angeles Center
08:21PM 34.6167 -119.1006 145° Southeast 412 474 18,400 -2,710 Descending Los Angeles Center
08:22PM 34.5061 -119.0092 146° Southeast 404 465 15,200 -2,855 Descending Los Angeles Center
08:23PM 34.4192 -118.9308 143° Southeast 389 448 12,500 -1,839 Descending Los Angeles Center
08:24PM 34.3314 -118.8778 153° Southeast 351 404 11,400 -726 Descending Los Angeles Center
08:25PM 34.2503 -118.8664 173° South 296 341 11,000 -871 Descending Los Angeles Center
08:26PM 34.1775 -118.8542 172° South 270 311 9,600 -1,632 Descending Los Angeles Center
08:27PM 34.0919 -118.8422 173° South 259 298 7,600 -1,632 Descending Los Angeles Center
08:28PM 34.0242 -118.8286 171° South 251 289 6,200 -1,597 Descending Los Angeles Center
08:29PM 33.9831 -118.7539 124° Southeast 249 287 4,300 -1,645 Descending Los Angeles Center
08:30PM 33.9439 -118.6825 123° Southeast 255 293 2,800 -1,016 Descending Los Angeles Center
08:31PM 33.9311 -118.6019 101° East 223 257 2,200 -435 Descending Los Angeles Center
08:32PM 33.9383 -118.5400 82° East 178 205 1,900 -581 Descending Los Angeles Center
08:33PM 33.9442 -118.4844 83° East 157 181 1,000 -774 Descending Los Angeles Center
08:34PM 33.9486 -118.4408 83° East 140 161 300 -387 Descending Los Angeles Center
08:35PM 33.9533 -118.3983 82° East 138 159 200 -97 Descending Los Angeles Center
08:37PM 33.9333 -118.4000 104° East  Level FlightAware Approximate
08:44PM 33.9425 -118.4081 104° East  Level Estimated